createdAt,value
2023-04-01T00:01:37.866Z,18.13
2023-04-01T00:04:05.846Z,20.88
2023-04-01T00:06:33.136Z,19.52
2023-04-01T00:09:00.559Z,18.75
2023-04-01T00:11:28.725Z,18.15
2023-04-01T00:13:56.069Z,18.35
2023-04-01T00:16:23.369Z,19.92
2023-04-01T00:18:51.682Z,19.30
2023-04-01T00:21:19.156Z,18.42
2023-04-01T00:23:46.588Z,18.55
2023-04-01T00:26:15.290Z,17.30
2023-04-01T00:28:42.842Z,17.77
2023-04-01T00:31:11.427Z,19.23
2023-04-01T00:33:39.692Z,18.92
2023-04-01T00:36:17.234Z,19.38
2023-04-01T00:38:44.561Z,18.38
2023-04-01T00:41:15.968Z,18.48
2023-04-01T00:43:43.968Z,19.25
2023-04-01T00:46:11.520Z,18.52
2023-04-01T00:48:43.137Z,18.73
2023-04-01T00:51:18.280Z,17.98
2023-04-01T00:53:46.790Z,19.23
2023-04-01T00:56:34.227Z,14.10
2023-04-01T00:59:27.868Z,18.13
2023-04-01T01:01:55.853Z,18.35
2023-04-01T01:04:27.862Z,16.63
2023-04-01T01:07:13.995Z,18.92
2023-04-01T01:09:59.288Z,19.10
2023-04-01T01:12:34.787Z,18.35
2023-04-01T01:15:13.626Z,19.60
2023-04-01T01:17:45.041Z,18.45
2023-04-01T01:20:23.060Z,18.10
2023-04-01T01:22:56.066Z,18.58
2023-04-01T01:25:48.634Z,17.70
2023-04-01T01:28:48.710Z,18.00
2023-04-01T01:31:45.715Z,17.98
2023-04-01T01:34:47.755Z,18.90
2023-04-01T01:37:17.486Z,17.67
2023-04-01T01:39:48.593Z,18.08
2023-04-01T01:42:17.727Z,18.65
2023-04-01T01:44:48.045Z,18.77
2023-04-01T01:47:17.091Z,17.23
2023-04-01T01:49:45.365Z,17.25
2023-04-01T01:52:12.999Z,18.90
2023-04-01T01:54:56.884Z,18.20
2023-04-01T01:57:34.027Z,18.90
2023-04-01T02:00:04.570Z,19.67
2023-04-01T02:02:33.091Z,19.88
2023-04-01T02:05:00.680Z,19.90
2023-04-01T02:07:34.451Z,18.42
2023-04-01T02:10:01.735Z,18.73
2023-04-01T02:12:30.998Z,18.42
2023-04-01T02:15:13.948Z,18.67
2023-04-01T02:17:44.369Z,18.50
2023-04-01T02:20:19.985Z,18.88
2023-04-01T02:22:52.278Z,18.60
2023-04-01T02:25:25.639Z,18.97
2023-04-01T02:27:53.458Z,18.75
2023-04-01T02:30:20.750Z,17.85
2023-04-01T02:32:49.282Z,18.90
2023-04-01T02:35:17.931Z,17.98
2023-04-01T02:37:47.887Z,18.52
2023-04-01T02:40:16.427Z,18.48
2023-04-01T02:42:43.788Z,17.42
2023-04-01T02:45:12.177Z,20.17
2023-04-01T02:47:39.646Z,18.65
2023-04-01T02:50:07.569Z,17.75
2023-04-01T02:52:34.848Z,17.70
2023-04-01T02:55:03.111Z,18.40
2023-04-01T02:57:30.776Z,18.30
2023-04-01T02:59:58.113Z,18.17
2023-04-01T03:02:25.557Z,17.58
2023-04-01T03:04:52.595Z,12.48
2023-04-01T03:07:19.784Z,18.75
2023-04-01T03:09:46.706Z,19.30
2023-04-01T03:12:13.982Z,17.77
2023-04-01T03:14:41.312Z,18.40
2023-04-01T03:17:08.574Z,17.42
2023-04-01T03:19:35.798Z,19.45
2023-04-01T03:22:02.622Z,18.65
2023-04-01T03:24:29.872Z,19.48
2023-04-01T03:26:57.073Z,19.15
2023-04-01T03:29:23.924Z,20.70
2023-04-01T03:31:51.178Z,20.17
2023-04-01T03:34:18.402Z,17.75
2023-04-01T03:36:45.829Z,20.77
2023-04-01T03:39:13.657Z,19.48
2023-04-01T03:41:40.934Z,20.13
2023-04-01T03:44:08.195Z,21.10
2023-04-01T03:46:35.719Z,20.05
2023-04-01T03:49:03.226Z,18.52
2023-04-01T03:51:32.271Z,21.15
2023-04-01T03:53:59.606Z,20.77
2023-04-01T03:56:27.410Z,21.48
2023-04-01T03:58:54.617Z,18.15
2023-04-01T04:01:23.053Z,20.05
2023-04-01T04:03:51.550Z,20.70
2023-04-01T04:06:20.054Z,17.30
2023-04-01T04:08:47.375Z,20.30
2023-04-01T04:11:14.660Z,21.20
2023-04-01T04:13:42.168Z,21.63
2023-04-01T04:16:10.941Z,20.63
2023-04-01T04:18:38.538Z,20.73
2023-04-01T04:21:06.156Z,20.73
2023-04-01T04:23:35.286Z,20.45
2023-04-01T04:26:04.492Z,20.20
2023-04-01T04:28:32.118Z,19.95
2023-04-01T04:30:59.610Z,20.25
2023-04-01T04:33:27.344Z,20.48
2023-04-01T04:35:56.872Z,20.33
2023-04-01T04:38:24.323Z,20.02
2023-04-01T04:40:51.603Z,21.95
2023-04-01T04:43:19.420Z,20.05
2023-04-01T04:45:47.446Z,16.50
2023-04-01T04:48:17.258Z,21.83
2023-04-01T04:50:44.461Z,20.58
2023-04-01T04:53:15.633Z,20.58
2023-04-01T04:55:46.848Z,21.15
2023-04-01T04:58:14.311Z,21.48
2023-04-01T05:00:41.562Z,21.15
2023-04-01T05:03:08.921Z,20.80
2023-04-01T05:05:36.209Z,20.00
2023-04-01T05:08:03.537Z,20.40
2023-04-01T05:10:31.594Z,19.67
2023-04-01T05:12:59.140Z,19.38
2023-04-01T05:15:26.451Z,18.92
2023-04-01T05:17:53.683Z,18.50
2023-04-01T05:20:21.063Z,18.58
2023-04-01T05:22:48.365Z,19.77
2023-04-01T05:25:15.735Z,18.38
2023-04-01T05:27:42.946Z,17.50
2023-04-01T05:30:10.829Z,18.27
2023-04-01T05:32:38.180Z,18.30
2023-04-01T05:35:05.621Z,17.58
2023-04-01T05:37:32.956Z,18.98
2023-04-01T05:40:00.455Z,19.27
2023-04-01T05:42:27.657Z,16.73
2023-04-01T05:44:54.929Z,18.98
2023-04-01T05:47:22.172Z,17.95
2023-04-01T05:49:49.775Z,16.90
2023-04-01T05:52:17.208Z,17.38
2023-04-01T05:54:44.412Z,17.77
2023-04-01T05:57:11.719Z,18.05
2023-04-01T05:59:39.345Z,17.15
2023-04-01T06:02:06.566Z,16.60
2023-04-01T06:04:39.581Z,16.77
2023-04-01T06:07:17.815Z,18.45
2023-04-01T06:09:46.028Z,17.52
2023-04-01T06:12:13.231Z,17.20
2023-04-01T06:15:18.335Z,18.13
2023-04-01T06:20:28.075Z,16.88
2023-04-01T06:23:18.985Z,17.75
2023-04-01T06:25:56.618Z,16.67
2023-04-01T06:28:49.628Z,15.63
2023-04-01T06:31:26.193Z,15.63
2023-04-01T06:34:17.389Z,15.43
2023-04-01T06:36:53.627Z,16.15
2023-04-01T06:39:49.328Z,17.55
2023-04-01T06:42:31.603Z,16.92
2023-04-01T06:45:19.885Z,17.88
2023-04-01T06:48:14.263Z,15.02
2023-04-01T06:50:56.003Z,14.02
2023-04-01T06:53:46.181Z,13.27
2023-04-01T06:56:17.673Z,11.05
2023-04-01T06:58:55.098Z,11.07
2023-04-01T07:01:35.168Z,11.10
2023-04-01T07:04:05.212Z,10.85
2023-04-01T07:06:46.206Z,11.20
2023-04-01T07:09:22.102Z,11.70
2023-04-01T07:11:49.479Z,12.30
2023-04-01T07:14:39.519Z,12.23
2023-04-01T07:17:16.087Z,12.13
2023-04-01T07:19:53.815Z,11.48
2023-04-01T07:22:44.627Z,11.68
2023-04-01T07:25:28.476Z,9.38
2023-04-01T07:28:06.207Z,9.50
2023-04-01T07:30:44.113Z,8.30
2023-04-01T07:33:23.485Z,8.38
2023-04-01T07:35:50.860Z,8.63
2023-04-01T07:38:26.516Z,7.82
2023-04-01T07:41:05.623Z,7.45
2023-04-01T07:44:10.716Z,7.45
2023-04-01T07:46:49.115Z,8.68
2023-04-01T07:49:19.528Z,7.78
2023-04-01T07:51:52.449Z,6.88
2023-04-01T07:54:33.574Z,7.72
2023-04-01T07:57:16.863Z,7.25
2023-04-01T07:59:46.626Z,6.68
2023-04-01T08:02:43.883Z,6.82
2023-04-01T08:05:11.232Z,6.28
2023-04-01T08:07:46.454Z,7.00
2023-04-01T08:10:39.268Z,7.30
2023-04-01T08:13:11.551Z,6.82
2023-04-01T08:15:49.793Z,5.68
2023-04-01T08:18:23.211Z,5.10
2023-04-01T08:20:57.684Z,5.63
2023-04-01T08:23:35.566Z,6.25
2023-04-01T08:26:08.201Z,5.82
2023-04-01T08:28:38.400Z,4.70
2023-04-01T08:31:17.974Z,4.65
2023-04-01T08:33:48.501Z,4.63
2023-04-01T08:36:23.454Z,4.80
2023-04-01T08:39:23.697Z,4.65
2023-04-01T08:41:51.113Z,5.65
2023-04-01T08:44:53.434Z,5.72
2023-04-01T08:47:57.526Z,6.13
2023-04-01T08:50:31.154Z,5.10
2023-04-01T08:53:16.120Z,5.20
2023-04-01T08:55:56.820Z,4.40
2023-04-01T08:58:39.142Z,5.47
2023-04-01T09:01:36.745Z,6.07
2023-04-01T09:04:28.185Z,5.95
2023-04-01T09:07:36.881Z,4.47
2023-04-01T09:10:34.307Z,5.65
2023-04-01T09:13:21.961Z,4.40
2023-04-01T09:15:57.791Z,4.30
2023-04-01T09:18:43.542Z,4.43
2023-04-01T09:21:43.589Z,3.65
2023-04-01T09:24:41.785Z,4.28
2023-04-01T09:27:16.126Z,3.13
2023-04-01T09:30:00.968Z,3.45
2023-04-01T09:32:52.458Z,3.22
2023-04-01T09:35:51.548Z,2.75
2023-04-01T09:38:36.000Z,2.83
2023-04-01T09:41:46.398Z,2.63
2023-04-01T09:44:13.680Z,2.70
2023-04-01T09:47:14.589Z,2.70
2023-04-01T09:49:53.515Z,2.67
2023-04-01T09:52:26.556Z,2.90
2023-04-01T09:54:53.733Z,3.13
2023-04-01T09:57:21.065Z,3.13
2023-04-01T09:59:48.659Z,3.15
2023-04-01T10:02:42.522Z,3.55
2023-04-01T10:05:30.213Z,3.75
2023-04-01T10:08:00.367Z,3.67
2023-04-01T10:10:33.156Z,4.05
2023-04-01T10:13:00.395Z,4.22
2023-04-01T10:15:29.672Z,4.22
2023-04-01T10:18:15.225Z,5.05
2023-04-01T10:20:42.458Z,5.03
2023-04-01T10:23:09.706Z,4.95
2023-04-01T10:25:58.603Z,5.18
2023-04-01T10:28:54.452Z,6.10
2023-04-01T10:31:45.848Z,6.45
2023-04-01T10:34:19.835Z,6.05
2023-04-01T10:36:59.136Z,6.90
2023-04-01T10:39:57.738Z,5.20
2023-04-01T10:42:37.207Z,5.55
2023-04-01T10:45:16.695Z,5.50
2023-04-01T10:48:11.109Z,5.00
2023-04-01T10:51:02.565Z,5.03
2023-04-01T10:53:51.444Z,4.97
2023-04-01T10:56:35.174Z,5.10
2023-04-01T10:59:16.923Z,4.90
2023-04-01T11:01:44.291Z,4.97
2023-04-01T11:04:11.667Z,4.78
2023-04-01T11:06:57.487Z,5.18
2023-04-01T11:09:51.687Z,4.97
2023-04-01T11:12:34.482Z,5.55
2023-04-01T11:15:24.940Z,5.43
2023-04-01T11:18:04.144Z,5.20
2023-04-01T11:21:02.201Z,4.97
2023-04-01T11:23:51.960Z,4.63
2023-04-01T11:26:40.806Z,4.78
2023-04-01T11:29:20.387Z,5.07
2023-04-01T11:32:03.640Z,5.72
2023-04-01T11:34:39.324Z,4.90
2023-04-01T11:37:06.505Z,4.85
2023-04-01T11:39:46.276Z,4.75
2023-04-01T11:42:36.104Z,4.97
2023-04-01T11:45:09.380Z,5.10
2023-04-01T11:47:41.865Z,5.18
2023-04-01T11:50:12.264Z,5.28
2023-04-01T11:53:00.681Z,4.72
2023-04-01T11:55:42.281Z,5.35
2023-04-01T11:58:20.934Z,4.47
2023-04-01T12:00:57.095Z,4.78
2023-04-01T12:03:48.090Z,4.80
2023-04-01T12:06:15.655Z,4.85
2023-04-01T12:08:42.890Z,4.82
2023-04-01T12:11:28.919Z,5.55
2023-04-01T12:14:35.480Z,5.30
2023-04-01T12:17:31.659Z,3.28
2023-04-01T12:20:05.992Z,2.63
2023-04-01T12:22:45.539Z,2.13
2023-04-01T12:25:24.940Z,2.60
2023-04-01T12:27:52.466Z,2.45
2023-04-01T12:30:25.840Z,2.10
2023-04-01T12:33:06.528Z,1.80
2023-04-01T12:36:04.071Z,1.92
2023-04-01T12:38:31.372Z,2.15
2023-04-01T12:41:13.717Z,1.80
2023-04-01T12:43:59.457Z,1.92
2023-04-01T12:46:30.065Z,2.38
2023-04-01T12:49:32.814Z,2.83
2023-04-01T12:52:21.158Z,3.65
2023-04-01T12:54:51.361Z,4.00
2023-04-01T12:57:21.401Z,3.30
2023-04-01T12:59:48.675Z,1.98
2023-04-01T13:02:29.465Z,1.98
2023-04-01T13:05:17.196Z,2.00
2023-04-01T13:07:54.213Z,2.13
2023-04-01T13:10:30.628Z,2.15
2023-04-01T13:13:18.275Z,2.08
2023-04-01T13:15:57.125Z,2.35
2023-04-01T13:18:32.518Z,1.73
2023-04-01T13:20:59.839Z,1.80
2023-04-01T13:23:27.279Z,10.38
2023-04-01T13:26:13.012Z,4.35
2023-04-01T13:29:03.816Z,2.20
2023-04-01T13:31:42.532Z,3.78
2023-04-01T13:34:31.161Z,2.85
2023-04-01T13:37:05.422Z,3.25
2023-04-01T13:40:00.877Z,3.92
2023-04-01T13:42:46.920Z,3.13
2023-04-01T13:45:19.105Z,3.10
2023-04-01T13:47:52.162Z,3.22
2023-04-01T13:53:37.143Z,4.28
2023-04-01T13:56:09.088Z,4.05
2023-04-01T13:59:14.304Z,4.07
2023-04-01T14:02:04.397Z,3.58
2023-04-01T14:04:38.167Z,4.00
2023-04-01T14:07:10.497Z,5.07
2023-04-01T14:09:43.621Z,4.17
2023-04-01T14:14:56.504Z,4.07
2023-04-01T14:17:49.595Z,4.13
2023-04-01T14:20:22.670Z,4.75
2023-04-01T14:22:58.798Z,4.90
2023-04-01T14:25:26.007Z,5.63
2023-04-01T14:27:53.218Z,5.63
2023-04-01T14:30:33.048Z,4.60
2023-04-01T14:33:24.179Z,7.35
2023-04-01T14:36:00.806Z,6.60
2023-04-01T14:38:41.222Z,6.30
2023-04-01T14:41:30.340Z,5.82
2023-04-01T14:44:18.386Z,6.20
2023-04-01T14:46:48.919Z,6.53
2023-04-01T14:49:16.108Z,6.05
2023-04-01T14:51:43.384Z,6.55
2023-04-01T14:54:23.943Z,6.78
2023-04-01T14:57:24.854Z,6.43
2023-04-01T14:59:52.246Z,7.07
2023-04-01T15:02:38.377Z,6.13
2023-04-01T15:05:42.573Z,6.25
2023-04-01T15:08:10.235Z,6.45
2023-04-01T15:10:37.495Z,6.43
2023-04-01T15:13:22.441Z,7.32
2023-04-01T15:15:49.640Z,6.78
2023-04-01T15:18:25.882Z,7.47
2023-04-01T15:21:30.215Z,7.22
2023-04-01T15:24:08.986Z,6.47
2023-04-01T15:26:54.969Z,6.20
2023-04-01T15:29:44.570Z,6.75
2023-04-01T15:32:17.888Z,7.18
2023-04-01T15:35:09.836Z,6.43
2023-04-01T15:37:55.404Z,6.90
2023-04-01T15:40:25.967Z,6.13
2023-04-01T15:42:53.179Z,5.40
2023-04-01T15:45:26.807Z,6.93
2023-04-01T15:47:57.077Z,7.20
2023-04-01T15:50:24.369Z,5.55
2023-04-01T15:53:09.859Z,6.82
2023-04-01T15:56:08.148Z,6.32
2023-04-01T15:58:51.082Z,7.32
2023-04-01T16:01:18.311Z,6.38
2023-04-01T16:03:51.523Z,6.40
2023-04-01T16:08:57.938Z,4.40
2023-04-01T16:11:41.880Z,5.65
2023-04-01T16:14:36.553Z,6.15
2023-04-01T16:17:22.696Z,5.82
2023-04-01T16:20:16.699Z,7.60
2023-04-01T16:22:51.461Z,7.95
2023-04-01T16:25:18.820Z,6.35
2023-04-01T16:27:46.018Z,6.10
2023-04-01T16:30:34.839Z,5.63
2023-04-01T16:33:23.388Z,6.65
2023-04-01T16:36:18.284Z,7.43
2023-04-01T16:38:49.935Z,6.72
2023-04-01T16:41:33.029Z,7.38
2023-04-01T16:44:30.086Z,5.55
2023-04-01T16:47:16.680Z,4.43
2023-04-01T16:50:15.645Z,5.93
2023-04-01T16:53:09.297Z,5.88
2023-04-01T16:55:48.452Z,6.15
2023-04-01T16:58:28.735Z,5.90
2023-04-01T17:01:31.627Z,4.90
2023-04-01T17:04:28.789Z,4.53
2023-04-01T17:07:03.468Z,5.32
2023-04-01T17:09:39.399Z,5.47
2023-04-01T17:12:43.518Z,5.57
2023-04-01T17:15:44.327Z,5.30
2023-04-01T17:19:05.021Z,5.13
2023-04-01T17:21:40.359Z,5.30
2023-04-01T17:24:34.374Z,5.75
2023-04-01T17:27:32.148Z,5.18
2023-04-01T17:30:00.698Z,6.18
2023-04-01T17:32:44.233Z,6.03
2023-04-01T17:35:16.396Z,5.60
2023-04-01T17:37:52.524Z,5.80
2023-04-01T17:40:28.176Z,5.10
2023-04-01T17:43:10.481Z,5.15
2023-04-01T17:45:44.297Z,4.78
2023-04-01T17:48:17.473Z,5.00
2023-04-01T17:53:49.107Z,5.90
2023-04-01T17:56:20.649Z,6.20
2023-04-01T17:58:55.475Z,7.07
2023-04-01T18:01:30.846Z,9.93
2023-04-01T18:04:01.353Z,7.97
2023-04-01T18:07:00.409Z,7.47
2023-04-01T18:09:42.852Z,9.23
2023-04-01T18:12:45.190Z,9.57
2023-04-01T18:15:24.374Z,9.15
2023-04-01T18:17:54.479Z,9.50
2023-04-01T18:20:58.993Z,11.10
2023-04-01T18:23:33.120Z,11.77
2023-04-01T18:26:32.604Z,11.98
2023-04-01T18:29:12.295Z,12.70
2023-04-01T18:31:41.751Z,13.52
2023-04-01T18:34:35.261Z,14.65
2023-04-01T18:37:14.096Z,15.18
2023-04-01T18:39:51.378Z,16.80
2023-04-01T18:42:45.582Z,18.40
2023-04-01T18:45:33.652Z,18.67
2023-04-01T18:48:23.495Z,18.15
2023-04-01T18:50:58.912Z,21.98
2023-04-01T18:53:50.904Z,20.05
2023-04-01T18:56:29.212Z,21.30
2023-04-01T18:59:02.648Z,20.90
2023-04-01T19:01:29.549Z,23.63
2023-04-01T19:04:22.100Z,23.98
2023-04-01T19:06:55.934Z,23.30
2023-04-01T19:09:46.175Z,23.45
2023-04-01T19:13:09.567Z,21.23
2023-04-01T19:15:37.298Z,19.73
2023-04-01T19:18:18.718Z,20.52
2023-04-01T19:21:01.632Z,19.98
2023-04-01T19:23:52.099Z,18.75
2023-04-01T19:26:26.227Z,16.40
2023-04-01T19:29:31.898Z,15.63
2023-04-01T19:32:17.603Z,18.85
2023-04-01T19:34:58.632Z,17.02
2023-04-01T19:37:59.293Z,15.25
2023-04-01T19:41:01.990Z,14.65
2023-04-01T19:43:52.078Z,14.63
2023-04-01T19:46:26.156Z,14.38
2023-04-01T19:48:56.698Z,13.85
2023-04-01T19:51:45.362Z,14.05
2023-04-01T19:54:43.939Z,12.68
2023-04-01T19:57:21.721Z,12.75
2023-04-01T20:00:12.261Z,11.68
2023-04-01T20:02:39.746Z,12.30
2023-04-01T20:05:27.226Z,13.88
2023-04-01T20:07:56.986Z,12.43
2023-04-01T20:10:27.301Z,12.57
2023-04-01T20:13:32.518Z,12.88
2023-04-01T20:16:03.788Z,12.48
2023-04-01T20:18:53.680Z,12.65
2023-04-01T20:21:46.995Z,13.77
2023-04-01T20:24:24.832Z,12.98
2023-04-01T20:27:01.527Z,13.80
2023-04-01T20:29:37.850Z,13.63
2023-04-01T20:32:05.163Z,13.43
2023-04-01T20:34:38.457Z,14.50
2023-04-01T20:39:35.908Z,14.18
2023-04-01T20:42:09.295Z,14.48
2023-04-01T20:44:45.191Z,14.68
2023-04-01T20:47:43.005Z,16.30
2023-04-01T20:50:21.495Z,15.15
2023-04-01T20:52:55.526Z,15.23
2023-04-01T20:55:37.722Z,16.10
2023-04-01T20:58:12.455Z,17.55
2023-04-01T21:00:59.796Z,17.60
2023-04-01T21:04:04.114Z,17.63
2023-04-01T21:06:43.159Z,17.77
2023-04-01T21:09:10.451Z,17.55
2023-04-01T21:12:14.988Z,17.27
2023-04-01T21:15:03.959Z,16.63
2023-04-01T21:17:55.686Z,18.88
2023-04-01T21:20:49.964Z,17.60
2023-04-01T21:23:50.400Z,18.67
2023-04-01T21:26:50.477Z,18.55
2023-04-01T21:29:20.549Z,20.15
2023-04-01T21:31:47.837Z,20.83
2023-04-01T21:34:21.254Z,19.70
2023-04-01T21:36:48.434Z,19.63
2023-04-01T21:39:32.811Z,18.55
2023-04-01T21:42:12.204Z,19.67
2023-04-01T21:44:45.159Z,18.77
2023-04-01T21:47:46.456Z,17.90
2023-04-01T21:50:22.282Z,29.35
2023-04-01T21:53:30.796Z,18.05
2023-04-01T21:56:32.974Z,11.88
2023-04-01T21:59:11.342Z,10.35
2023-04-01T22:02:05.770Z,10.13
2023-04-01T22:04:36.405Z,10.05
2023-04-01T22:07:23.298Z,9.05
2023-04-01T22:09:50.481Z,8.70
2023-04-01T22:12:27.744Z,7.63
2023-04-01T22:15:03.929Z,7.53
2023-04-01T22:17:37.896Z,7.97
2023-04-01T22:20:14.734Z,7.45
2023-04-01T22:22:59.914Z,7.25
2023-04-01T22:25:39.878Z,6.72
2023-04-01T22:28:09.902Z,7.07
2023-04-01T22:31:01.534Z,7.57
2023-04-01T22:33:28.817Z,7.95
2023-04-01T22:36:04.175Z,7.53
2023-04-01T22:38:57.000Z,6.90
2023-04-01T22:41:47.430Z,5.27
2023-04-01T22:44:21.924Z,4.65
2023-04-01T22:47:00.758Z,3.83
2023-04-01T22:49:44.332Z,4.00
2023-04-01T22:52:17.911Z,3.67
2023-04-01T22:54:51.478Z,4.20
2023-04-01T22:57:42.854Z,4.55
2023-04-01T23:00:35.496Z,5.80
2023-04-01T23:03:26.103Z,4.60
2023-04-01T23:05:54.808Z,4.88
2023-04-01T23:08:55.987Z,4.53
2023-04-01T23:11:23.286Z,5.13
2023-04-01T23:14:19.459Z,4.32
2023-04-01T23:16:54.595Z,4.78
2023-04-01T23:19:45.854Z,4.55
2023-04-01T23:22:22.197Z,4.93
2023-04-01T23:25:11.838Z,4.13
2023-04-01T23:27:51.293Z,4.40
2023-04-01T23:30:39.602Z,4.93
2023-04-01T23:33:24.750Z,4.28
2023-04-01T23:35:57.350Z,4.20
2023-04-01T23:38:27.208Z,3.58
2023-04-01T23:40:56.119Z,3.10
2023-04-01T23:43:25.782Z,3.55
2023-04-01T23:45:53.729Z,3.70
2023-04-01T23:48:23.054Z,3.60
2023-04-01T23:50:50.318Z,3.58
2023-04-01T23:53:24.425Z,3.35
2023-04-01T23:55:53.441Z,3.72
2023-04-01T23:58:45.157Z,3.60
